Time;durP1;ratioP1;P1;durP2;ratioP2;P2;SDS_P1;SDS_P2;PMS_P1;PMS_P2;Temp;Humidity;BMP_temperature;BMP_pressure;BME280_temperature;BME280_humidity;BME280_pressure;Samples;Min_cycle;Max_cycle;Signal;HPM_P1;HPM_P2
2023/12/22 00:03:36;;;;;;;120.07;6.57;;;;;;;0.10;100.00;99357.97;10247397;29;20130;-71
2023/12/22 00:08:37;;;;;;;61.55;5.15;;;;;;;-0.29;100.00;99286.34;10246253;28;20040;-72
2023/12/22 00:13:38;;;;;;;91.60;6.18;;;;;;;0.12;100.00;99355.22;10246200;28;20050;-72
2023/12/22 00:18:38;;;;;;;107.00;5.32;;;;;;;-0.21;100.00;99296.97;10245492;28;20046;-71
2023/12/22 00:23:39;;;;;;;38.35;4.68;;;;;;;0.24;100.00;99343.78;10245690;28;20070;-71
2023/12/22 00:28:40;;;;;;;24.98;3.67;;;;;;;0.05;100.00;99327.94;10245865;28;20058;-71
2023/12/22 00:33:40;;;;;;;11.15;2.70;;;;;;;0.16;100.00;99338.34;10245712;29;20058;-71
2023/12/22 00:38:41;;;;;;;3.80;2.08;;;;;;;0.16;100.00;99320.06;10244943;28;20477;-71
2023/12/22 00:43:42;;;;;;;3.33;1.90;;;;;;;0.06;100.00;99293.03;10245170;28;20047;-71
2023/12/22 00:48:43;;;;;;;4.38;2.08;;;;;;;0.05;100.00;99310.50;10246000;28;20490;-71
2023/12/22 00:53:43;;;;;;;4.90;2.25;;;;;;;-0.02;100.00;99302.34;10267369;28;20086;-71
2023/12/22 00:58:44;;;;;;;3.70;1.90;;;;;;;-0.07;100.00;99270.56;10205472;28;20059;-71
2023/12/22 01:03:45;;;;;;;4.28;2.33;;;;;;;0.05;100.00;99289.59;10263656;28;20035;-71
2023/12/22 01:08:49;;;;;;;3.85;2.45;;;;;;;-0.02;100.00;99271.00;10205443;29;20075;-71
2023/12/22 01:13:50;;;;;;;4.53;2.17;;;;;;;-0.15;100.00;99233.84;10357271;28;20068;-71
2023/12/22 01:18:51;;;;;;;6.47;2.30;;;;;;;-0.08;100.00;99224.53;10359767;28;20054;-71
2023/12/22 01:23:51;;;;;;;4.55;2.58;;;;;;;0.21;100.00;99261.28;10211409;29;20527;-71
2023/12/22 01:28:59;;;;;;;4.00;2.40;;;;;;;0.28;100.00;99272.03;10211896;29;20170;-71
2023/12/22 01:34:02;;;;;;;3.63;2.17;;;;;;;0.37;100.00;99280.88;10249831;28;20041;-71
2023/12/22 01:39:04;;;;;;;4.03;2.20;;;;;;;0.38;100.00;99279.91;10369021;28;20505;-71
2023/12/22 01:44:05;;;;;;;3.63;2.22;;;;;;;0.39;100.00;99258.06;10323636;28;20063;-70
2023/12/22 01:49:07;;;;;;;4.30;2.53;;;;;;;0.36;100.00;99256.56;10246334;28;20098;-71
2023/12/22 01:54:09;;;;;;;4.55;2.47;;;;;;;0.41;100.00;99264.81;10283464;28;20086;-71
2023/12/22 01:59:11;;;;;;;6.05;2.85;;;;;;;0.14;100.00;99186.19;10209011;29;20142;-71
2023/12/22 02:04:14;;;;;;;5.70;2.90;;;;;;;0.37;100.00;99229.47;10209648;28;20431;-70
2023/12/22 02:09:14;;;;;;;5.97;3.25;;;;;;;0.38;100.00;99220.66;10412375;28;20069;-71
2023/12/22 02:14:15;;;;;;;5.07;2.97;;;;;;;0.32;100.00;99226.41;10417633;28;20501;-70
2023/12/22 02:19:38;;;;;;;8.80;3.13;;;;;;;0.47;100.00;99226.06;10417917;28;20049;-70
2023/12/22 02:24:40;;;;;;;18.33;3.58;;;;;;;0.22;100.00;99200.25;10388325;28;20072;-70
2023/12/22 02:29:47;;;;;;;7.72;3.63;;;;;;;0.46;100.00;99227.84;10391870;28;20042;-72
2023/12/22 02:34:51;;;;;;;19.48;5.72;;;;;;;0.51;100.00;99217.00;10322488;28;20103;-70
2023/12/22 02:39:52;;;;;;;11.03;4.73;;;;;;;0.52;100.00;99223.88;10272687;28;20063;-70
2023/12/22 02:44:53;;;;;;;20.63;4.07;;;;;;;0.23;100.00;99181.00;10414048;28;20147;-70
2023/12/22 02:49:54;;;;;;;16.58;5.47;;;;;;;0.09;100.00;99149.16;10415306;28;20065;-70
2023/12/22 02:54:55;;;;;;;11.88;4.28;;;;;;;0.20;100.00;99149.09;10414817;28;20037;-71
2023/12/22 02:59:57;;;;;;;4.70;3.03;;;;;;;0.25;100.00;99146.09;10415022;28;20045;-71
2023/12/22 03:04:57;;;;;;;5.93;3.17;;;;;;;0.54;100.00;99182.75;10415877;28;20080;-70
2023/12/22 03:09:58;;;;;;;5.07;2.88;;;;;;;0.52;100.00;99158.56;10416339;28;20520;-70
2023/12/22 03:14:59;;;;;;;4.40;2.72;;;;;;;0.59;100.00;99144.81;10415260;28;20037;-70
2023/12/22 03:20:00;;;;;;;3.88;2.70;;;;;;;0.75;100.00;99170.47;10410776;28;20041;-70
2023/12/22 03:25:00;;;;;;;4.85;2.65;;;;;;;0.70;100.00;99179.66;10414661;28;20048;-71
2023/12/22 03:30:04;;;;;;;5.78;2.53;;;;;;;0.67;100.00;99178.13;10414056;28;20132;-71
2023/12/22 03:35:05;;;;;;;4.22;2.58;;;;;;;0.70;100.00;99187.50;10414309;28;20045;-70
2023/12/22 03:40:07;;;;;;;5.05;2.85;;;;;;;0.70;100.00;99204.00;10293601;28;20091;-70
2023/12/22 03:45:08;;;;;;;3.75;2.50;;;;;;;0.51;100.00;99162.97;10204543;29;20043;-70
2023/12/22 03:50:09;;;;;;;4.55;2.78;;;;;;;0.60;100.00;99185.69;10206124;29;20088;-70
2023/12/22 03:55:10;;;;;;;6.70;3.25;;;;;;;0.74;100.00;99207.19;10205997;29;20040;-71
2023/12/22 04:00:13;;;;;;;4.45;3.10;;;;;;;0.68;100.00;99221.59;10204940;29;20058;-74
2023/12/22 04:05:14;;;;;;;6.38;3.25;;;;;;;0.56;100.00;99218.25;10206217;29;20044;-73
2023/12/22 04:10:17;;;;;;;15.73;3.47;;;;;;;0.60;100.00;99237.97;10206045;29;20450;-71
2023/12/22 04:15:18;;;;;;;5.70;3.73;;;;;;;0.57;100.00;99263.50;10200419;29;20050;-71
2023/12/22 04:20:19;;;;;;;8.85;4.47;;;;;;;0.48;100.00;99252.06;10203335;29;20380;-69
2023/12/22 04:25:22;;;;;;;8.73;4.82;;;;;;;0.47;100.00;99233.91;10205506;29;20043;-69
2023/12/22 04:30:23;;;;;;;7.93;4.40;;;;;;;0.51;100.00;99235.28;10253677;28;20513;-70
2023/12/22 04:35:24;;;;;;;7.90;4.50;;;;;;;0.53;100.00;99217.69;10366241;28;20037;-71
2023/12/22 04:40:25;;;;;;;8.05;4.95;;;;;;;0.43;100.00;99202.00;10349436;28;1695816;-70
2023/12/22 04:45:26;;;;;;;8.23;5.07;;;;;;;0.40;100.00;99223.97;10412997;28;20041;-70
2023/12/22 04:50:27;;;;;;;16.65;4.68;;;;;;;0.32;100.00;99229.00;10421222;28;20054;-69
2023/12/22 04:55:27;;;;;;;11.10;4.90;;;;;;;0.42;100.00;99235.13;10421117;28;20053;-70
2023/12/22 05:00:28;;;;;;;7.82;5.05;;;;;;;0.31;100.00;99203.03;10420320;28;20076;-70
2023/12/22 05:05:29;;;;;;;8.27;5.15;;;;;;;0.20;100.00;99185.66;10420777;28;20037;-70
2023/12/22 05:10:30;;;;;;;9.10;4.70;;;;;;;0.35;100.00;99200.00;10420798;28;20065;-70
2023/12/22 05:15:31;;;;;;;17.08;4.80;;;;;;;0.60;100.00;99219.66;10419673;28;20048;-70
2023/12/22 05:20:32;;;;;;;7.47;4.72;;;;;;;0.32;100.00;99153.25;10420096;28;20037;-70
2023/12/22 05:25:33;;;;;;;10.63;4.88;;;;;;;0.70;100.00;99214.47;10419533;28;20034;-70
2023/12/22 05:30:33;;;;;;;6.72;4.47;;;;;;;0.72;100.00;99211.69;10420187;28;20444;-70
2023/12/22 05:35:34;;;;;;;6.72;4.60;;;;;;;0.79;100.00;99211.06;10419493;28;20045;-69
2023/12/22 05:40:35;;;;;;;8.07;4.70;;;;;;;0.56;100.00;99154.72;10419630;28;20065;-70
2023/12/22 05:45:36;;;;;;;8.93;5.25;;;;;;;0.89;100.00;99190.97;10418568;28;20052;-70
2023/12/22 05:50:37;;;;;;;7.25;4.05;;;;;;;0.96;100.00;99187.81;10418669;28;20045;-71
2023/12/22 05:55:37;;;;;;;12.50;4.53;;;;;;;0.94;100.00;99174.06;10418809;28;20489;-69
2023/12/22 06:00:38;;;;;;;12.85;4.82;;;;;;;0.89;100.00;99169.22;10417519;28;20394;-69
2023/12/22 06:05:39;;;;;;;7.53;4.22;;;;;;;0.68;100.00;99124.91;10418367;28;20194;-69
2023/12/22 06:10:40;;;;;;;8.65;4.07;;;;;;;0.73;100.00;99120.09;10418269;28;20041;-70
2023/12/22 06:15:41;;;;;;;8.63;4.68;;;;;;;0.65;100.00;99106.88;10417973;28;20045;-69
2023/12/22 06:20:42;;;;;;;9.88;5.20;;;;;;;1.00;100.00;99145.59;10417166;28;20052;-69
2023/12/22 06:25:42;;;;;;;9.20;5.20;;;;;;;1.05;100.00;99135.56;10417127;28;20520;-70
2023/12/22 06:30:44;;;;;;;11.18;4.80;;;;;;;0.78;100.00;99093.53;10417384;28;20042;-70
2023/12/22 06:36:00;;;;;;;8.63;4.40;;;;;;;1.06;100.00;99099.75;10417520;28;20147;-69
2023/12/22 06:41:00;;;;;;;6.43;3.83;;;;;;;1.42;100.00;99131.41;10417566;28;20092;-69
2023/12/22 06:46:01;;;;;;;7.55;3.75;;;;;;;1.61;100.00;99120.91;10416187;28;20564;-69
2023/12/22 06:51:02;;;;;;;16.30;4.82;;;;;;;1.57;100.00;99093.38;10416230;28;20047;-69
2023/12/22 06:56:15;;;;;;;10.52;4.15;;;;;;;2.13;100.00;99151.94;10416536;28;20049;-69
2023/12/22 07:01:22;;;;;;;9.10;4.07;;;;;;;2.01;100.00;99117.22;10416253;28;20046;-71
2023/12/22 07:06:27;;;;;;;10.38;4.10;;;;;;;2.15;100.00;99135.06;10415746;28;20037;-69
2023/12/22 07:11:28;;;;;;;10.10;5.07;;;;;;;2.19;100.00;99115.50;10415885;28;20559;-69
2023/12/22 07:16:29;;;;;;;11.40;7.03;;;;;;;2.39;100.00;99121.47;10415068;28;20037;-69
2023/12/22 07:21:30;;;;;;;6.22;4.13;;;;;;;2.28;100.00;99083.19;10414698;28;20576;-69
2023/12/22 07:26:30;;;;;;;7.90;5.20;;;;;;;2.09;100.00;99046.59;10414808;28;20044;-70
2023/12/22 07:31:31;;;;;;;8.73;5.68;;;;;;;2.49;100.00;99109.16;10415233;28;20045;-69
2023/12/22 07:36:32;;;;;;;11.70;8.10;;;;;;;2.62;100.00;99106.16;10414637;28;20037;-70
2023/12/22 07:41:33;;;;;;;6.20;4.65;;;;;;;2.92;100.00;99118.09;10414622;28;20049;-70
2023/12/22 07:46:34;;;;;;;5.38;3.85;;;;;;;2.86;100.00;99068.06;10415005;28;20037;-70
2023/12/22 07:51:35;;;;;;;5.57;3.88;;;;;;;3.12;100.00;99095.19;10414101;28;20048;-70
2023/12/22 07:56:36;;;;;;;6.03;3.85;;;;;;;2.98;100.00;99058.97;10414189;28;20557;-70
2023/12/22 08:01:36;;;;;;;6.72;4.50;;;;;;;3.04;100.00;99060.19;10413492;28;20037;-70
2023/12/22 08:06:38;;;;;;;7.10;4.85;;;;;;;2.88;100.00;99019.72;10413888;28;20042;-70
2023/12/22 08:11:38;;;;;;;7.40;4.93;;;;;;;3.20;100.00;99016.53;10413523;28;20480;-70
2023/12/22 08:16:39;;;;;;;6.00;4.13;;;;;;;3.48;100.00;99019.00;10413700;28;20125;-70
2023/12/22 08:21:43;;;;;;;6.80;4.22;;;;;;;3.28;100.00;98980.81;10413328;28;20056;-70
2023/12/22 08:26:44;;;;;;;9.33;3.97;;;;;;;3.62;100.00;99031.56;10413920;28;20037;-70
2023/12/22 08:31:45;;;;;;;5.78;4.05;;;;;;;3.40;100.00;98980.38;10413163;28;20041;-70
2023/12/22 08:36:45;;;;;;;6.57;4.10;;;;;;;3.49;100.00;98975.19;10412817;28;20140;-69
2023/12/22 08:41:47;;;;;;;5.97;4.35;;;;;;;3.80;100.00;99030.63;10412291;28;20050;-69
2023/12/22 08:46:48;;;;;;;6.00;4.05;;;;;;;3.63;100.00;99016.63;10413061;28;20040;-69
2023/12/22 08:51:49;;;;;;;7.40;4.65;;;;;;;3.42;100.00;98986.31;10412911;28;20064;-70
2023/12/22 08:56:49;;;;;;;7.15;4.25;;;;;;;3.50;100.00;98969.78;10412696;28;20049;-70
2023/12/22 09:01:50;;;;;;;5.82;4.10;;;;;;;3.83;100.00;99018.03;10412588;28;20557;-70
2023/12/22 09:06:51;;;;;;;7.55;4.50;;;;;;;3.62;100.00;98967.69;10410792;28;20525;-68
2023/12/22 09:11:52;;;;;;;5.85;4.35;;;;;;;4.05;100.00;98990.38;10411983;28;20128;-69
2023/12/22 09:16:55;;;;;;;7.03;4.13;;;;;;;4.03;100.00;98979.19;10412019;28;20178;-68
2023/12/22 09:21:56;;;;;;;6.38;4.05;;;;;;;4.13;100.00;98960.66;10411680;28;20045;-70
2023/12/22 09:27:02;;;;;;;6.15;4.25;;;;;;;4.18;100.00;98958.38;10411665;28;20033;-69
2023/12/22 09:32:03;;;;;;;6.25;4.47;;;;;;;3.93;100.00;98912.81;10412884;28;20124;-70
2023/12/22 09:37:04;;;;;;;5.88;3.92;;;;;;;3.60;100.00;98862.81;10419352;28;20501;-68
2023/12/22 09:42:05;;;;;;;6.38;4.53;;;;;;;4.23;100.00;98950.00;10419484;28;20132;-67
2023/12/22 09:47:08;;;;;;;6.07;4.35;;;;;;;3.97;100.00;98887.84;10419180;28;20042;-67
2023/12/22 09:52:11;;;;;;;7.20;5.00;;;;;;;4.39;100.00;98939.50;10419076;28;20073;-68
2023/12/22 09:57:12;;;;;;;7.28;4.85;;;;;;;4.23;100.00;98902.69;10418801;28;20136;-68
2023/12/22 10:02:13;;;;;;;6.85;4.88;;;;;;;4.19;100.00;98872.44;10410405;28;20045;-69
2023/12/22 10:07:14;;;;;;;9.98;5.57;;;;;;;4.44;100.00;98925.88;10239676;28;20041;-69
2023/12/22 10:12:17;;;;;;;11.60;5.38;;;;;;;4.45;100.00;98922.25;10313693;28;20037;-68
2023/12/22 10:17:18;;;;;;;8.63;6.32;;;;;;;4.33;100.00;98914.69;10273740;28;20474;-68
2023/12/22 10:22:21;;;;;;;14.63;6.90;;;;;;;4.25;100.00;98916.50;10232017;28;20039;-69
2023/12/22 10:27:22;;;;;;;12.23;6.63;;;;;;;4.08;100.00;98879.69;10228295;29;20028;-69
2023/12/22 10:32:23;;;;;;;11.85;7.18;;;;;;;4.24;100.00;98899.06;10229147;28;20046;-68
2023/12/22 10:37:24;;;;;;;10.93;6.07;;;;;;;4.25;100.00;98891.03;10254083;28;20147;-69
2023/12/22 10:42:25;;;;;;;9.50;6.68;;;;;;;4.31;100.00;98911.41;10266944;28;20138;-69
2023/12/22 10:47:28;;;;;;;12.52;7.35;;;;;;;4.47;100.00;98931.63;10226695;28;20042;-69
2023/12/22 10:52:29;;;;;;;19.50;7.15;;;;;;;4.52;100.00;98907.50;10261055;28;20047;-69
2023/12/22 10:57:41;;;;;;;11.90;7.22;;;;;;;4.66;100.00;98919.94;10273786;28;20062;-69
2023/12/22 11:02:43;;;;;;;15.85;5.90;;;;;;;4.76;100.00;98915.38;10284169;28;20420;-69
2023/12/22 11:07:49;;;;;;;12.25;7.20;;;;;;;4.74;100.00;98892.84;10267155;28;20043;-69
2023/12/22 11:12:51;;;;;;;18.23;10.20;;;;;;;4.89;100.00;98898.25;10257335;28;20452;-69
2023/12/22 11:17:55;;;;;;;26.52;11.95;;;;;;;4.96;100.00;98894.75;10252229;28;20047;-68
2023/12/22 11:22:57;;;;;;;20.67;10.00;;;;;;;5.02;100.00;98890.63;10383505;28;20071;-68
2023/12/22 11:28:00;;;;;;;13.15;6.90;;;;;;;5.00;100.00;98868.94;10247474;28;20363;-68
2023/12/22 11:33:02;;;;;;;9.65;6.38;;;;;;;5.06;100.00;98852.50;10413922;28;20041;-68
2023/12/22 11:38:05;;;;;;;11.60;6.40;;;;;;;5.08;100.00;98833.88;10354241;28;20076;-69
2023/12/22 11:43:06;;;;;;;11.27;5.70;;;;;;;5.11;100.00;98837.00;10414899;28;20612;-68
2023/12/22 11:48:09;;;;;;;10.55;5.47;;;;;;;5.22;100.00;98847.16;10414620;28;20053;-68
2023/12/22 11:53:24;;;;;;;8.63;5.65;;;;;;;5.52;100.00;98873.69;10259783;28;20031;-69
2023/12/22 11:58:36;;;;;;;10.25;5.93;;;;;;;5.36;100.00;98843.00;10346984;28;20520;-70
2023/12/22 12:03:42;;;;;;;7.22;5.40;;;;;;;5.56;100.00;98848.66;10272710;28;20045;-69
2023/12/22 12:08:44;;;;;;;7.75;5.40;;;;;;;5.98;100.00;98894.06;10306517;28;20083;-69
2023/12/22 12:13:46;;;;;;;9.52;5.47;;;;;;;5.99;100.00;98903.66;10299199;28;20041;-70
2023/12/22 12:18:47;;;;;;;9.57;5.60;;;;;;;5.92;100.00;98885.00;10314468;28;20042;-68
2023/12/22 12:23:48;;;;;;;8.90;5.50;;;;;;;5.61;100.00;98853.41;10348029;28;20045;-68
2023/12/22 12:28:50;;;;;;;7.65;5.18;;;;;;;5.70;100.00;98873.44;10300476;28;20091;-68
2023/12/22 12:33:50;;;;;;;7.97;4.82;;;;;;;5.73;100.00;98879.19;10278779;28;20036;-68
2023/12/22 12:39:14;;;;;;;8.07;5.05;;;;;;;5.87;100.00;98895.28;10278494;28;20053;-68
2023/12/22 12:44:16;;;;;;;12.97;5.37;;;;;;;5.73;100.00;98875.75;10226032;28;20042;-69
2023/12/22 12:49:18;;;;;;;9.30;5.13;;;;;;;5.72;100.00;98898.63;10265444;28;20040;-69
2023/12/22 12:54:19;;;;;;;9.85;5.00;;;;;;;5.14;100.00;98817.41;10265117;28;20403;-68
2023/12/22 12:59:20;;;;;;;6.25;4.75;;;;;;;5.37;100.00;98880.69;10223284;29;20059;-68
2023/12/22 13:04:21;;;;;;;7.93;5.03;;;;;;;5.30;100.00;98877.91;10252631;28;20109;-68
2023/12/22 13:09:32;;;;;;;21.27;5.47;;;;;;;4.72;100.00;98834.28;10226858;29;20123;-70
2023/12/22 13:14:33;;;;;;;9.93;5.45;;;;;;;4.84;100.00;98882.94;10285164;28;20037;-70
2023/12/22 13:19:34;;;;;;;8.07;6.00;;;;;;;4.65;100.00;98862.28;10232288;28;20483;-70
2023/12/22 13:24:35;;;;;;;8.23;5.60;;;;;;;4.61;100.00;98877.56;10252941;28;20138;-70
2023/12/22 13:29:47;;;;;;;14.90;6.18;;;;;;;4.32;100.00;98876.25;10233599;28;20570;-70
2023/12/22 13:34:51;;;;;;;11.00;7.60;;;;;;;4.00;100.00;98857.81;10256777;28;20040;-70
2023/12/22 13:39:52;;;;;;;25.83;13.30;;;;;;;4.00;100.00;98877.03;10280320;28;20493;-69
2023/12/22 13:44:53;;;;;;;23.33;12.20;;;;;;;3.68;100.00;98885.69;10275310;28;20403;-69
2023/12/22 13:49:55;;;;;;;22.40;11.75;;;;;;;3.44;100.00;98886.41;10360178;28;20079;-69
2023/12/22 13:54:56;;;;;;;25.25;10.27;;;;;;;3.15;100.00;98876.28;10210882;28;20601;-70
2023/12/22 13:59:57;;;;;;;19.23;7.35;;;;;;;2.98;100.00;98856.97;10274470;28;20039;-70
2023/12/22 14:04:58;;;;;;;12.50;7.38;;;;;;;2.64;100.00;98805.34;10247256;28;20066;-70
2023/12/22 14:10:07;;;;;;;10.60;6.93;;;;;;;3.08;100.00;98870.81;10237373;28;20043;-70
2023/12/22 14:15:09;;;;;;;13.20;7.70;;;;;;;3.16;100.00;98870.03;10251602;28;20054;-69
2023/12/22 14:20:11;;;;;;;16.25;10.10;;;;;;;3.17;100.00;98859.38;10256775;28;20051;-69
2023/12/22 14:25:12;;;;;;;18.27;9.20;;;;;;;3.15;100.00;98863.97;10290192;28;20060;-69
2023/12/22 14:30:13;;;;;;;16.67;8.60;;;;;;;2.94;100.00;98869.59;10298182;28;20039;-69
2023/12/22 14:35:14;;;;;;;15.95;8.05;;;;;;;2.76;100.00;98853.09;10239808;28;20048;-69
2023/12/22 14:40:15;;;;;;;22.58;12.85;;;;;;;2.56;100.00;98826.25;10329932;28;20824;-68
2023/12/22 14:45:16;;;;;;;28.15;17.80;;;;;;;2.77;100.00;98856.53;10284807;28;20042;-71
2023/12/22 14:50:18;;;;;;;20.15;14.57;;;;;;;2.53;100.00;98810.84;10278979;28;20500;-70
2023/12/22 14:55:19;;;;;;;14.15;9.48;;;;;;;2.45;100.00;98789.81;10312603;28;20044;-67
2023/12/22 15:00:20;;;;;;;14.25;9.45;;;;;;;2.89;100.00;98856.13;10345609;28;20520;-69
2023/12/22 15:05:21;;;;;;;12.57;8.77;;;;;;;2.65;100.00;98804.34;10389684;28;20042;-68
2023/12/22 15:10:22;;;;;;;17.38;11.40;;;;;;;2.84;100.00;98836.56;10225015;28;20117;-68
2023/12/22 15:15:23;;;;;;;18.08;11.60;;;;;;;2.69;100.00;98845.03;10208521;29;20101;-68
2023/12/22 15:20:24;;;;;;;17.90;10.98;;;;;;;2.58;100.00;98837.41;10207645;29;20052;-69
2023/12/22 15:25:26;;;;;;;12.57;9.80;;;;;;;2.47;100.00;98830.63;10206112;29;20048;-68
2023/12/22 15:30:28;;;;;;;22.05;15.05;;;;;;;2.49;100.00;98825.22;10287439;28;20029;-68
2023/12/22 15:35:28;;;;;;;30.45;18.27;;;;;;;2.45;100.00;98824.72;10413157;28;20045;-68
2023/12/22 15:40:29;;;;;;;24.25;15.07;;;;;;;2.20;100.00;98842.03;10415089;28;20061;-68
2023/12/22 15:45:31;;;;;;;22.00;10.25;;;;;;;2.00;100.00;98836.13;10413045;28;20071;-69
2023/12/22 15:50:32;;;;;;;19.58;7.13;;;;;;;1.87;100.00;98816.53;10414489;28;20409;-69
2023/12/22 15:55:32;;;;;;;35.35;6.55;;;;;;;2.13;100.00;98832.34;10414254;28;20091;-68
2023/12/22 16:00:33;;;;;;;32.53;12.57;;;;;;;2.22;100.00;98847.97;10413887;28;20041;-68
2023/12/22 16:05:34;;;;;;;35.00;10.68;;;;;;;2.37;100.00;98845.63;10327065;28;20047;-68
2023/12/22 16:10:35;;;;;;;43.20;8.27;;;;;;;1.74;100.00;98743.63;10246126;29;20530;-70
2023/12/22 16:15:35;;;;;;;40.17;5.15;;;;;;;2.13;100.00;98812.19;10246567;28;20181;-69
2023/12/22 16:20:37;;;;;;;29.55;6.05;;;;;;;2.41;100.00;98846.94;10245676;29;20055;-69
2023/12/22 16:25:38;;;;;;;92.90;8.65;;;;;;;2.48;100.00;98853.25;10245765;28;20052;-69
2023/12/22 16:30:39;;;;;;;67.35;7.63;;;;;;;2.33;100.00;98825.09;10246839;28;20522;-68
2023/12/22 16:35:41;;;;;;;119.20;8.88;;;;;;;2.26;100.00;98823.09;10244399;28;20134;-69
2023/12/22 16:40:44;;;;;;;113.43;9.43;;;;;;;1.94;100.00;98771.25;10245160;28;20070;-68
2023/12/22 16:45:45;;;;;;;65.55;6.82;;;;;;;2.21;100.00;98798.31;10252987;28;20043;-68
2023/12/22 16:50:46;;;;;;;119.80;10.15;;;;;;;2.07;100.00;98776.13;10252321;28;20047;-68
2023/12/22 16:55:46;;;;;;;104.45;12.32;;;;;;;2.30;100.00;98786.91;10253210;28;20069;-68
2023/12/22 17:00:47;;;;;;;88.63;10.18;;;;;;;2.28;100.00;98784.47;10251818;28;20047;-68
2023/12/22 17:05:48;;;;;;;94.65;7.93;;;;;;;1.89;100.00;98715.09;10251705;28;20487;-69
2023/12/22 17:10:49;;;;;;;121.93;8.40;;;;;;;2.11;100.00;98766.16;10252297;29;20085;-69
2023/12/22 17:15:50;;;;;;;135.38;8.43;;;;;;;2.20;100.00;98768.69;10252633;29;20039;-69
2023/12/22 17:20:50;;;;;;;84.95;9.80;;;;;;;2.24;100.00;98762.19;10252072;28;20491;-69
2023/12/22 17:25:52;;;;;;;118.32;10.75;;;;;;;2.31;100.00;98777.28;10249914;29;20063;-70
2023/12/22 17:30:53;;;;;;;94.15;8.27;;;;;;;2.31;100.00;98767.63;10251019;28;20050;-69
2023/12/22 17:35:54;;;;;;;87.93;10.15;;;;;;;2.28;100.00;98758.25;10250831;28;20045;-69
2023/12/22 17:40:55;;;;;;;100.15;7.13;;;;;;;2.44;100.00;98767.19;10251946;28;20067;-68
2023/12/22 17:45:55;;;;;;;61.70;8.40;;;;;;;2.46;100.00;98757.41;10250547;29;20117;-68
2023/12/22 17:50:56;;;;;;;92.68;8.07;;;;;;;2.61;100.00;98768.94;10250274;28;20126;-68
2023/12/22 17:55:58;;;;;;;43.65;9.63;;;;;;;2.64;100.00;98752.91;10250238;28;20105;-69
2023/12/22 18:01:00;;;;;;;21.92;8.43;;;;;;;2.58;100.00;98748.28;10250472;28;20485;-68
2023/12/22 18:06:01;;;;;;;13.13;6.75;;;;;;;2.60;100.00;98772.53;10249877;28;20071;-68
2023/12/22 18:11:05;;;;;;;10.85;6.50;;;;;;;2.60;100.00;98769.91;10249876;28;20071;-68
2023/12/22 18:16:06;;;;;;;10.82;6.80;;;;;;;2.69;100.00;98776.84;10249531;28;20051;-68
2023/12/22 18:21:07;;;;;;;28.88;8.85;;;;;;;2.57;100.00;98766.78;10258088;28;20043;-69
2023/12/22 18:26:09;;;;;;;22.25;8.85;;;;;;;2.69;100.00;98773.41;10367479;28;20126;-69
2023/12/22 18:31:12;;;;;;;24.13;10.32;;;;;;;2.34;100.00;98703.59;10417571;28;20041;-68
2023/12/22 18:36:13;;;;;;;21.67;9.93;;;;;;;2.71;100.00;98759.16;10417656;28;20061;-68
2023/12/22 18:41:13;;;;;;;14.00;8.43;;;;;;;2.33;100.00;98681.78;10416522;28;20540;-68
2023/12/22 18:46:14;;;;;;;12.60;8.25;;;;;;;2.66;100.00;98750.09;10387932;28;20072;-68
2023/12/22 18:51:17;;;;;;;8.48;6.25;;;;;;;2.68;100.00;98737.66;10221000;28;20146;-68
2023/12/22 18:56:22;;;;;;;6.80;5.25;;;;;;;2.57;100.00;98730.06;10208856;29;20040;-67
2023/12/22 19:01:23;;;;;;;8.98;5.53;;;;;;;2.38;100.00;98721.47;10208732;29;20048;-69
2023/12/22 19:06:24;;;;;;;8.43;5.80;;;;;;;2.36;100.00;98715.53;10207467;28;20462;-69
2023/12/22 19:11:25;;;;;;;8.60;5.95;;;;;;;2.42;100.00;98706.25;10208790;29;20063;-68
2023/12/22 19:16:26;;;;;;;9.43;7.00;;;;;;;2.44;100.00;98694.63;10209272;29;20044;-68
2023/12/22 19:21:27;;;;;;;12.45;6.40;;;;;;;2.29;100.00;98676.06;10208810;29;20083;-68
2023/12/22 19:26:28;;;;;;;10.35;6.70;;;;;;;1.80;100.00;98591.16;10208543;29;20040;-68
2023/12/22 19:31:29;;;;;;;8.65;5.90;;;;;;;2.15;100.00;98637.31;10208281;29;20046;-68
2023/12/22 19:36:31;;;;;;;17.52;9.20;;;;;;;1.95;100.00;98594.84;10207910;29;20105;-69
2023/12/22 19:41:34;;;;;;;9.85;5.43;;;;;;;2.18;100.00;98647.50;10207860;29;20052;-69
2023/12/22 19:46:34;;;;;;;7.60;5.13;;;;;;;2.29;100.00;98659.50;10208127;29;20036;-69
2023/12/22 19:51:35;;;;;;;8.23;5.10;;;;;;;2.37;100.00;98645.66;10208269;29;20039;-69
2023/12/22 19:56:36;;;;;;;7.93;5.18;;;;;;;2.18;100.00;98610.81;10211125;28;20423;-69
2023/12/22 20:01:37;;;;;;;8.55;4.97;;;;;;;2.37;100.00;98646.47;10294124;28;20101;-68
2023/12/22 20:06:38;;;;;;;7.15;4.97;;;;;;;2.22;100.00;98617.41;10206787;29;20907;-69
2023/12/22 20:11:38;;;;;;;7.35;5.00;;;;;;;2.11;100.00;98609.00;10207332;29;20043;-69
2023/12/22 20:16:39;;;;;;;11.05;5.28;;;;;;;2.24;100.00;98636.41;10206938;29;20051;-69
2023/12/22 20:21:41;;;;;;;10.15;5.07;;;;;;;2.22;100.00;98622.66;10206308;29;20155;-69
2023/12/22 20:26:42;;;;;;;7.75;5.32;;;;;;;2.34;100.00;98645.97;10206138;29;20447;-68
2023/12/22 20:31:43;;;;;;;7.78;5.05;;;;;;;2.32;100.00;98651.34;10206469;29;20040;-69
2023/12/22 20:36:45;;;;;;;12.98;4.72;;;;;;;2.08;100.00;98631.09;10206510;28;20067;-68
2023/12/22 20:41:46;;;;;;;8.38;4.82;;;;;;;2.09;100.00;98645.00;10205650;29;20587;-69
2023/12/22 20:46:48;;;;;;;8.85;5.05;;;;;;;2.24;100.00;98643.44;10206245;28;20173;-68
2023/12/22 20:51:52;;;;;;;6.63;4.60;;;;;;;2.32;100.00;98629.56;10300312;28;20069;-69
2023/12/22 20:56:53;;;;;;;6.22;4.25;;;;;;;2.22;100.00;98601.69;10313749;28;20488;-69
2023/12/22 21:01:53;;;;;;;7.65;4.03;;;;;;;2.25;100.00;98617.09;10206006;29;20050;-68
2023/12/22 21:06:54;;;;;;;4.20;2.40;;;;;;;2.15;100.00;98599.84;10328563;28;20045;-69
2023/12/22 21:11:55;;;;;;;3.05;2.17;;;;;;;2.26;100.00;98608.25;10412087;28;20044;-69
2023/12/22 21:16:56;;;;;;;3.00;1.80;;;;;;;2.02;100.00;98564.44;10411982;28;20041;-68
2023/12/22 21:21:57;;;;;;;3.20;2.00;;;;;;;2.04;100.00;98566.91;10411304;28;20198;-69
2023/12/22 21:26:58;;;;;;;4.57;2.20;;;;;;;2.38;100.00;98618.44;10297546;28;20040;-69
2023/12/22 21:31:58;;;;;;;4.55;1.92;;;;;;;1.90;100.00;98536.06;10211214;29;20044;-68
2023/12/22 21:36:59;;;;;;;3.47;1.75;;;;;;;2.37;100.00;98608.97;10211316;29;20410;-69
2023/12/22 21:42:03;;;;;;;4.45;2.75;;;;;;;1.97;100.00;98550.97;10211726;29;20094;-69
2023/12/22 21:47:04;;;;;;;5.95;2.83;;;;;;;2.09;100.00;98554.13;10211418;29;20047;-68
2023/12/22 21:52:05;;;;;;;3.70;2.58;;;;;;;2.34;100.00;98604.03;10210801;29;20066;-68
2023/12/22 21:57:06;;;;;;;4.93;2.92;;;;;;;2.09;100.00;98584.75;10211157;29;20040;-68
2023/12/22 22:02:07;;;;;;;3.90;2.50;;;;;;;2.17;100.00;98595.28;10211105;29;20122;-69
2023/12/22 22:07:09;;;;;;;4.20;2.20;;;;;;;2.24;100.00;98610.22;10210769;29;20047;-68
2023/12/22 22:12:10;;;;;;;6.15;2.35;;;;;;;2.20;100.00;98600.19;10210161;29;20044;-68
2023/12/22 22:17:12;;;;;;;3.75;2.25;;;;;;;1.85;100.00;98533.91;10211160;29;20500;-68
2023/12/22 22:22:12;;;;;;;3.35;1.90;;;;;;;2.07;100.00;98586.72;10209815;29;20054;-68
2023/12/22 22:27:13;;;;;;;3.10;2.08;;;;;;;2.18;100.00;98589.03;10208718;29;20470;-68
2023/12/22 22:32:14;;;;;;;6.75;2.17;;;;;;;1.60;100.00;98483.25;10210196;29;20094;-68
2023/12/22 22:37:15;;;;;;;4.25;2.25;;;;;;;2.08;100.00;98562.16;10209607;29;20066;-68
2023/12/22 22:42:16;;;;;;;3.22;2.20;;;;;;;2.11;100.00;98565.28;10209374;29;20408;-69
2023/12/22 22:47:17;;;;;;;3.22;2.17;;;;;;;2.18;100.00;98573.31;10209823;29;20051;-68
2023/12/22 22:52:18;;;;;;;3.78;2.17;;;;;;;2.15;100.00;98566.59;10208418;29;20056;-69
2023/12/22 22:57:19;;;;;;;3.10;2.22;;;;;;;2.18;100.00;98589.88;10208926;29;20122;-68
2023/12/22 23:02:21;;;;;;;3.00;2.10;;;;;;;2.22;100.00;98596.44;10209297;29;20051;-69
2023/12/22 23:07:22;;;;;;;2.72;1.90;;;;;;;2.15;100.00;98578.88;10208536;29;20071;-69
2023/12/22 23:12:23;;;;;;;3.00;2.10;;;;;;;2.37;100.00;98601.91;10209495;29;20518;-69